createdAt,value
2022-08-11T00:00:09.205Z,1.00
2022-08-11T00:01:16.852Z,1.00
2022-08-11T00:02:29.368Z,1.00
2022-08-11T00:03:43.762Z,1.00
2022-08-11T00:04:45.721Z,1.00
2022-08-11T00:05:57.578Z,1.00
2022-08-11T00:07:03.544Z,1.00
2022-08-11T00:08:05.536Z,1.00
2022-08-11T00:09:18.216Z,1.00
2022-08-11T00:10:23.118Z,1.00
2022-08-11T00:11:43.751Z,1.00
2022-08-11T00:12:55.589Z,1.00
2022-08-11T00:13:57.455Z,1.00
2022-08-11T00:15:01.027Z,1.00
2022-08-11T00:16:05.293Z,1.00
2022-08-11T00:17:10.719Z,1.00
2022-08-11T00:18:14.061Z,1.00
2022-08-11T00:20:15.152Z,1.00
2022-08-11T00:20:45.262Z,1.00
2022-08-11T00:22:04.166Z,1.00
2022-08-11T00:23:10.483Z,1.00
2022-08-11T00:24:12.606Z,1.00
2022-08-11T00:25:20.234Z,1.00
2022-08-11T00:26:23.268Z,1.00
2022-08-11T00:27:35.781Z,1.00
2022-08-11T00:28:37.785Z,1.00
2022-08-11T00:29:51.642Z,1.00
2022-08-11T00:30:55.628Z,1.00
2022-08-11T00:32:01.621Z,1.00
2022-08-11T00:33:04.144Z,1.00
2022-08-11T00:34:12.314Z,1.00
2022-08-11T00:35:51.209Z,1.00
2022-08-11T00:37:00.489Z,1.00
2022-08-11T00:38:03.591Z,1.00
2022-08-11T00:39:07.963Z,1.00
2022-08-11T00:40:20.075Z,1.00
2022-08-11T00:41:38.507Z,1.00
2022-08-11T00:43:01.877Z,1.00
2022-08-11T00:44:40.970Z,1.00
2022-08-11T00:46:17.459Z,1.00
2022-08-11T00:47:24.392Z,1.00
2022-08-11T00:48:39.764Z,1.00
2022-08-11T00:50:03.056Z,1.00
2022-08-11T00:51:24.838Z,1.00
2022-08-11T00:52:44.720Z,1.00
2022-08-11T00:53:46.891Z,1.00
2022-08-11T00:54:51.285Z,1.00
2022-08-11T00:56:23.444Z,1.00
2022-08-11T00:57:51.244Z,1.00
2022-08-11T00:58:55.670Z,1.00
2022-08-11T01:00:12.786Z,1.00
2022-08-11T01:01:17.314Z,1.00
2022-08-11T01:02:39.503Z,1.00
2022-08-11T01:04:17.476Z,1.00
2022-08-11T01:05:42.624Z,1.00
2022-08-11T01:08:01.765Z,1.00
2022-08-11T01:08:59.129Z,1.00
2022-08-11T01:10:23.017Z,1.00
2022-08-11T01:11:55.287Z,1.00
2022-08-11T01:13:30.994Z,1.00
2022-08-11T01:15:03.245Z,1.00
2022-08-11T01:16:26.697Z,1.00
2022-08-11T01:18:00.183Z,1.00
2022-08-11T01:19:19.749Z,1.00
2022-08-11T01:20:55.949Z,1.00
2022-08-11T01:22:15.701Z,1.00
2022-08-11T01:23:47.944Z,1.00
2022-08-11T01:25:30.129Z,1.00
2022-08-11T01:27:00.152Z,1.00
2022-08-11T01:28:49.109Z,1.00
2022-08-11T01:30:17.688Z,1.00
2022-08-11T01:31:38.249Z,1.00
2022-08-11T01:33:01.958Z,1.00
2022-08-11T01:34:40.770Z,1.00
2022-08-11T01:36:14.421Z,1.00
2022-08-11T01:37:48.417Z,1.00
2022-08-11T01:39:18.317Z,1.00
2022-08-11T01:40:55.547Z,1.00
2022-08-11T01:43:13.658Z,1.00
2022-08-11T01:44:54.339Z,1.00
2022-08-11T01:45:59.504Z,1.00
2022-08-11T01:47:07.259Z,1.00
2022-08-11T01:48:35.849Z,1.00
2022-08-11T01:50:08.122Z,1.00
2022-08-11T01:51:43.263Z,1.00
2022-08-11T01:53:09.423Z,1.00
2022-08-11T01:54:27.250Z,1.00
2022-08-11T01:55:40.158Z,1.00
2022-08-11T01:57:02.083Z,1.00
2022-08-11T01:58:51.919Z,1.00
2022-08-11T02:00:06.571Z,1.00
2022-08-11T02:01:15.006Z,1.00
2022-08-11T02:02:48.324Z,1.00
2022-08-11T02:04:05.103Z,1.00
2022-08-11T02:05:50.748Z,1.00
2022-08-11T02:07:33.064Z,1.00
2022-08-11T02:08:44.866Z,1.00
2022-08-11T02:10:35.323Z,1.00
2022-08-11T02:11:41.130Z,1.00
2022-08-11T02:12:52.966Z,1.00
2022-08-11T02:14:06.132Z,1.00
2022-08-11T02:15:44.616Z,1.00
2022-08-11T02:16:49.036Z,1.00
2022-08-11T02:18:03.954Z,1.00
2022-08-11T02:19:37.359Z,1.00
2022-08-11T02:21:10.761Z,1.00
2022-08-11T02:22:50.472Z,1.00
2022-08-11T02:24:13.390Z,1.00
2022-08-11T02:25:37.307Z,1.00
2022-08-11T02:26:48.396Z,1.00
2022-08-11T02:28:16.384Z,1.00
2022-08-11T02:29:32.251Z,1.00
2022-08-11T02:30:39.746Z,1.00
2022-08-11T02:32:28.456Z,1.00
2022-08-11T02:33:36.581Z,1.00
2022-08-11T02:35:00.391Z,1.00
2022-08-11T02:36:10.510Z,1.00
2022-08-11T02:37:27.074Z,1.00
2022-08-11T02:38:46.085Z,1.00
2022-08-11T02:40:03.343Z,1.00
2022-08-11T02:41:51.624Z,1.00
2022-08-11T02:43:15.089Z,1.00
2022-08-11T02:44:52.040Z,1.00
2022-08-11T02:46:05.716Z,1.00
2022-08-11T02:47:33.004Z,1.00
2022-08-11T02:49:09.967Z,1.00
2022-08-11T02:50:26.551Z,1.00
2022-08-11T02:51:46.414Z,1.00
2022-08-11T02:53:03.403Z,1.00
2022-08-11T02:54:27.034Z,1.00
2022-08-11T02:55:57.864Z,1.00
2022-08-11T02:57:19.028Z,1.00
2022-08-11T02:58:36.950Z,1.00
2022-08-11T02:59:51.559Z,1.00
2022-08-11T03:01:23.401Z,1.00
2022-08-11T03:02:44.058Z,1.00
2022-08-11T03:03:57.911Z,1.00
2022-08-11T03:05:12.152Z,1.00
2022-08-11T03:06:38.925Z,1.00
2022-08-11T03:07:46.616Z,1.00
2022-08-11T03:09:04.443Z,1.00
2022-08-11T03:10:25.334Z,1.00
2022-08-11T03:12:00.593Z,1.00
2022-08-11T03:13:47.986Z,1.00
2022-08-11T03:15:59.965Z,1.00
2022-08-11T03:17:21.556Z,1.00
2022-08-11T03:18:28.257Z,1.00
2022-08-11T03:19:54.709Z,1.00
2022-08-11T03:21:03.277Z,1.00
2022-08-11T03:22:23.610Z,1.00
2022-08-11T03:23:39.338Z,1.00
2022-08-11T03:24:57.880Z,1.00
2022-08-11T03:26:29.531Z,1.00
2022-08-11T03:27:41.497Z,1.00
2022-08-11T03:29:31.148Z,1.00
2022-08-11T03:30:54.477Z,1.00
2022-08-11T03:32:04.526Z,1.00
2022-08-11T03:33:52.324Z,1.00
2022-08-11T03:34:56.676Z,1.00
2022-08-11T03:36:10.169Z,1.00
2022-08-11T03:37:50.456Z,1.00
2022-08-11T03:39:04.050Z,1.00
2022-08-11T03:40:16.530Z,1.00
2022-08-11T03:42:01.913Z,1.00
2022-08-11T03:43:21.845Z,1.00
2022-08-11T03:44:23.422Z,1.00
2022-08-11T03:45:57.266Z,1.00
2022-08-11T03:47:36.638Z,1.00
2022-08-11T03:48:49.095Z,1.00
2022-08-11T03:49:57.929Z,1.00
2022-08-11T03:51:14.994Z,1.00
2022-08-11T03:52:41.770Z,1.00
2022-08-11T03:53:43.339Z,1.00
2022-08-11T03:54:55.882Z,1.00
2022-08-11T03:56:25.493Z,1.00
2022-08-11T03:58:11.832Z,1.00
2022-08-11T03:59:32.011Z,1.00
2022-08-11T04:00:52.153Z,1.00
2022-08-11T04:02:00.126Z,1.00
2022-08-11T04:03:18.968Z,1.00
2022-08-11T04:04:50.684Z,1.00
2022-08-11T04:06:02.639Z,1.00
2022-08-11T04:07:41.837Z,1.00
2022-08-11T04:09:01.990Z,1.00
2022-08-11T04:10:46.170Z,1.00
2022-08-11T04:12:09.445Z,1.00
2022-08-11T04:13:49.271Z,1.00
2022-08-11T04:15:43.581Z,1.00
2022-08-11T04:17:20.028Z,1.90
2022-08-11T04:19:01.840Z,1.00
2022-08-11T04:20:40.357Z,1.20
2022-08-11T04:21:51.652Z,2.30
2022-08-11T04:24:36.299Z,4.10
2022-08-11T04:25:17.040Z,1.90
2022-08-11T04:26:46.428Z,4.90
2022-08-11T04:27:55.393Z,6.00
2022-08-11T04:29:36.461Z,4.60
2022-08-11T04:31:10.073Z,2.50
2022-08-11T04:32:31.792Z,5.00
2022-08-11T04:33:56.556Z,6.00
2022-08-11T04:35:48.695Z,4.20
2022-08-11T04:37:35.098Z,3.60
2022-08-11T04:38:46.495Z,6.60
2022-08-11T04:41:16.317Z,3.80
2022-08-11T04:43:23.709Z,2.40
2022-08-11T04:44:49.617Z,1.50
2022-08-11T04:46:03.273Z,1.00
2022-08-11T04:47:34.498Z,1.50
2022-08-11T04:49:39.821Z,2.70
2022-08-11T04:51:19.115Z,1.00
2022-08-11T04:52:52.849Z,2.50
2022-08-11T04:54:36.804Z,1.30
2022-08-11T04:56:21.986Z,1.00
2022-08-11T04:57:55.950Z,1.00
2022-08-11T04:59:18.929Z,2.20
2022-08-11T05:00:59.771Z,1.00
2022-08-11T05:02:41.215Z,1.00
2022-08-11T05:04:30.952Z,1.00
2022-08-11T05:06:06.317Z,1.00
2022-08-11T05:07:49.240Z,1.00
2022-08-11T05:09:15.458Z,1.00
2022-08-11T05:10:43.378Z,1.00
2022-08-11T05:12:12.789Z,1.00
2022-08-11T05:13:53.230Z,1.00
2022-08-11T05:15:14.793Z,1.00
2022-08-11T05:16:40.570Z,1.00
2022-08-11T05:18:24.144Z,1.00
2022-08-11T05:19:44.488Z,1.00
2022-08-11T05:21:16.256Z,1.00
2022-08-11T05:22:42.321Z,1.00
2022-08-11T05:24:07.426Z,1.00
2022-08-11T05:26:44.927Z,1.00
2022-08-11T05:27:21.596Z,1.00
2022-08-11T05:29:19.866Z,1.00
2022-08-11T05:30:46.891Z,1.00
2022-08-11T05:32:17.377Z,1.00
2022-08-11T05:33:53.160Z,1.00
2022-08-11T05:34:56.619Z,1.00
2022-08-11T05:36:12.515Z,1.00
2022-08-11T05:37:33.835Z,1.00
2022-08-11T05:38:55.572Z,1.00
2022-08-11T05:40:30.254Z,1.00
2022-08-11T05:41:50.713Z,1.00
2022-08-11T05:43:22.004Z,1.00
2022-08-11T05:44:42.950Z,1.00
2022-08-11T05:46:14.541Z,1.00
2022-08-11T05:47:42.981Z,1.00
2022-08-11T05:49:04.439Z,1.00
2022-08-11T05:50:33.092Z,1.00
2022-08-11T05:52:05.258Z,1.00
2022-08-11T05:53:30.537Z,1.00
2022-08-11T05:55:07.191Z,1.00
2022-08-11T05:56:21.388Z,1.00
2022-08-11T05:57:49.889Z,1.00
2022-08-11T05:58:55.847Z,1.00
2022-08-11T06:00:05.154Z,1.00
2022-08-11T06:01:09.025Z,1.00
2022-08-11T06:02:11.113Z,1.00
2022-08-11T06:03:25.678Z,1.00
2022-08-11T06:04:29.154Z,1.00
2022-08-11T06:05:44.160Z,1.00
2022-08-11T06:07:05.818Z,1.00
2022-08-11T06:08:09.193Z,1.00
2022-08-11T06:09:14.409Z,1.00
2022-08-11T06:10:44.467Z,1.00
2022-08-11T06:11:46.253Z,1.00
2022-08-11T06:12:53.707Z,1.00
2022-08-11T06:13:57.349Z,1.00
2022-08-11T06:15:05.814Z,1.00
2022-08-11T06:16:08.525Z,1.00
2022-08-11T06:17:11.396Z,1.00
2022-08-11T06:18:13.826Z,1.00
2022-08-11T06:19:16.757Z,1.00
2022-08-11T06:20:20.239Z,1.00
2022-08-11T06:21:22.759Z,1.00
2022-08-11T06:22:25.791Z,1.00
2022-08-11T06:23:32.636Z,1.00
2022-08-11T06:24:37.587Z,1.00
2022-08-11T06:25:39.477Z,1.00
2022-08-11T06:27:01.595Z,1.00
2022-08-11T06:28:06.570Z,1.00
2022-08-11T06:29:11.286Z,1.00
2022-08-11T06:30:13.980Z,1.00
2022-08-11T06:31:19.194Z,1.00
2022-08-11T06:32:25.991Z,1.00
2022-08-11T06:33:39.571Z,1.00
2022-08-11T06:35:19.979Z,1.00
2022-08-11T06:36:40.333Z,1.00
2022-08-11T06:38:23.439Z,1.00
2022-08-11T06:39:41.057Z,1.00
2022-08-11T06:41:17.937Z,1.00
2022-08-11T06:42:52.093Z,1.00
2022-08-11T06:44:12.843Z,1.00
2022-08-11T06:46:03.126Z,1.00
2022-08-11T06:47:09.682Z,1.00
2022-08-11T06:48:18.287Z,1.00
2022-08-11T06:49:41.334Z,1.00
2022-08-11T06:51:11.628Z,1.00
2022-08-11T06:52:34.745Z,1.00
2022-08-11T06:54:03.830Z,1.00
2022-08-11T06:55:55.542Z,1.00
2022-08-11T06:57:29.957Z,1.00
2022-08-11T06:58:41.372Z,1.00
2022-08-11T07:00:03.443Z,1.00
2022-08-11T07:01:11.540Z,1.00
2022-08-11T07:02:22.257Z,1.00
2022-08-11T07:03:28.520Z,1.00
2022-08-11T07:04:40.184Z,1.00
2022-08-11T07:05:58.652Z,1.00
2022-08-11T07:07:53.510Z,1.00
2022-08-11T07:09:16.446Z,1.00
2022-08-11T07:10:57.045Z,1.00
2022-08-11T07:12:54.700Z,1.00
2022-08-11T07:14:19.781Z,1.00
2022-08-11T07:16:12.275Z,1.00
2022-08-11T07:17:11.103Z,1.00
2022-08-11T07:18:39.218Z,1.00
2022-08-11T07:20:06.495Z,1.00
2022-08-11T07:22:04.239Z,1.00
2022-08-11T07:23:28.033Z,1.00
2022-08-11T07:25:01.930Z,1.00
2022-08-11T07:26:23.971Z,1.00
2022-08-11T07:27:55.200Z,1.00
2022-08-11T07:29:00.547Z,1.00
2022-08-11T07:30:08.711Z,1.00
2022-08-11T07:31:14.843Z,1.00
2022-08-11T07:32:24.293Z,1.00
2022-08-11T07:34:06.438Z,1.00
2022-08-11T07:35:13.475Z,1.00
2022-08-11T07:36:16.508Z,1.00
2022-08-11T07:37:19.737Z,1.00
2022-08-11T07:38:47.388Z,1.00
2022-08-11T07:39:50.319Z,1.00
2022-08-11T07:40:52.141Z,1.00
2022-08-11T07:41:57.529Z,1.00
2022-08-11T07:43:01.482Z,1.00
2022-08-11T07:44:09.439Z,1.00
2022-08-11T07:45:30.776Z,1.00
2022-08-11T07:46:51.802Z,1.00
2022-08-11T07:48:14.388Z,1.00
2022-08-11T07:49:34.908Z,1.00
2022-08-11T07:50:59.798Z,1.00
2022-08-11T07:52:21.380Z,1.00
2022-08-11T07:53:23.419Z,1.00
2022-08-11T07:54:26.071Z,1.00
2022-08-11T07:55:51.483Z,1.00
2022-08-11T07:57:08.911Z,1.00
2022-08-11T07:58:34.778Z,1.00
2022-08-11T08:00:05.640Z,1.00
2022-08-11T08:01:26.719Z,1.00
2022-08-11T08:02:47.211Z,1.00
2022-08-11T08:04:08.194Z,1.00
2022-08-11T08:05:28.795Z,1.00
2022-08-11T08:06:51.706Z,1.00
2022-08-11T08:08:12.135Z,1.00
2022-08-11T08:09:35.397Z,1.00
2022-08-11T08:10:57.029Z,1.00
2022-08-11T08:12:20.598Z,1.00
2022-08-11T08:13:40.774Z,1.00
2022-08-11T08:15:01.513Z,1.00
2022-08-11T08:16:22.207Z,1.00
2022-08-11T08:17:43.232Z,1.00
2022-08-11T08:18:45.169Z,1.00
2022-08-11T08:19:48.443Z,1.00
2022-08-11T08:20:50.930Z,1.00
2022-08-11T08:21:53.221Z,1.00
2022-08-11T08:22:58.633Z,1.00
2022-08-11T08:24:00.951Z,1.00
2022-08-11T08:25:03.224Z,1.00
2022-08-11T08:26:27.997Z,1.00
2022-08-11T08:27:30.145Z,1.00
2022-08-11T08:28:34.469Z,1.00
2022-08-11T08:29:56.938Z,1.00
2022-08-11T08:30:58.857Z,1.00
2022-08-11T08:32:02.741Z,1.00
2022-08-11T08:33:05.531Z,1.00
2022-08-11T08:34:07.293Z,1.00
2022-08-11T08:35:11.571Z,1.00
2022-08-11T08:36:16.254Z,1.00
2022-08-11T08:37:46.355Z,1.00
2022-08-11T08:38:54.111Z,1.00
2022-08-11T08:39:56.352Z,1.00
2022-08-11T08:41:00.412Z,1.00
2022-08-11T08:42:11.699Z,1.00
2022-08-11T08:43:17.389Z,1.00
2022-08-11T08:44:40.825Z,1.00
2022-08-11T08:45:44.616Z,1.00
2022-08-11T08:46:57.903Z,1.00
2022-08-11T08:48:04.059Z,1.00
2022-08-11T08:49:07.167Z,1.00
2022-08-11T08:50:16.742Z,1.00
2022-08-11T08:52:02.458Z,1.00
2022-08-11T08:53:04.186Z,1.00
2022-08-11T08:54:14.400Z,1.00
2022-08-11T08:55:19.002Z,1.00
2022-08-11T08:56:28.169Z,1.00
2022-08-11T08:57:39.894Z,1.00
2022-08-11T08:58:42.418Z,1.00
2022-08-11T08:59:48.792Z,1.00
2022-08-11T09:00:54.287Z,1.00
2022-08-11T09:02:00.606Z,1.00
2022-08-11T09:03:17.212Z,1.00
2022-08-11T09:04:25.860Z,1.00
2022-08-11T09:05:27.604Z,1.00
2022-08-11T09:06:32.779Z,1.00
2022-08-11T09:07:38.530Z,1.00
2022-08-11T09:08:42.192Z,1.00
2022-08-11T09:09:47.293Z,1.00
2022-08-11T09:11:13.601Z,1.00
2022-08-11T09:12:36.400Z,1.00
2022-08-11T09:13:44.566Z,1.00
2022-08-11T09:15:01.035Z,1.00
2022-08-11T09:16:05.603Z,1.00
2022-08-11T09:17:07.646Z,1.00
2022-08-11T09:18:11.001Z,1.00
2022-08-11T09:19:19.917Z,1.00
2022-08-11T09:20:25.206Z,1.00
2022-08-11T09:21:44.535Z,1.00
2022-08-11T09:24:06.382Z,1.00
2022-08-11T09:24:50.284Z,1.00
2022-08-11T09:26:19.952Z,1.00
2022-08-11T09:27:23.038Z,1.00
2022-08-11T09:28:29.653Z,1.00
2022-08-11T09:29:32.876Z,1.00
2022-08-11T09:30:34.856Z,1.00
2022-08-11T09:31:40.388Z,1.00
2022-08-11T09:32:42.996Z,1.00
2022-08-11T09:33:45.754Z,1.00
2022-08-11T09:34:49.068Z,1.00
2022-08-11T09:35:52.796Z,1.00
2022-08-11T09:37:13.781Z,1.00
2022-08-11T09:38:54.331Z,1.00
2022-08-11T09:40:15.573Z,1.00
2022-08-11T09:41:17.466Z,1.00
2022-08-11T09:42:23.114Z,1.00
2022-08-11T09:43:46.013Z,1.00
2022-08-11T09:44:48.826Z,1.00
2022-08-11T09:45:53.739Z,1.00
2022-08-11T09:46:59.346Z,1.00
2022-08-11T09:48:05.166Z,1.00
2022-08-11T09:49:06.899Z,1.00
2022-08-11T09:50:09.623Z,1.00
2022-08-11T09:51:12.645Z,1.00
2022-08-11T09:52:15.203Z,1.00
2022-08-11T09:53:35.995Z,1.00
2022-08-11T09:54:48.170Z,1.00
2022-08-11T09:55:51.559Z,1.00
2022-08-11T09:57:12.414Z,1.00
2022-08-11T09:58:43.252Z,1.00
2022-08-11T09:59:38.339Z,1.00
2022-08-11T10:00:40.758Z,1.00
2022-08-11T10:01:49.205Z,1.00
2022-08-11T10:02:53.509Z,1.00
2022-08-11T10:04:19.332Z,1.00
2022-08-11T10:05:40.326Z,1.00
2022-08-11T10:07:04.392Z,1.00
2022-08-11T10:08:11.877Z,1.00
2022-08-11T10:09:19.940Z,1.00
2022-08-11T10:10:23.764Z,1.00
2022-08-11T10:11:26.225Z,1.00
2022-08-11T10:12:37.384Z,1.00
2022-08-11T10:14:33.991Z,1.00
2022-08-11T10:15:39.732Z,1.00
2022-08-11T10:17:05.972Z,1.00
2022-08-11T10:18:30.076Z,1.00
2022-08-11T10:19:33.614Z,1.00
2022-08-11T10:20:37.835Z,1.00
2022-08-11T10:21:45.082Z,1.00
2022-08-11T10:23:05.392Z,1.00
2022-08-11T10:24:27.910Z,1.00
2022-08-11T10:25:48.449Z,1.00
2022-08-11T10:26:55.832Z,1.00
2022-08-11T10:28:30.677Z,1.00
2022-08-11T10:29:51.114Z,1.00
2022-08-11T10:31:12.538Z,1.00
2022-08-11T10:32:44.234Z,1.00
2022-08-11T10:34:03.547Z,1.00
2022-08-11T10:35:09.038Z,1.00
2022-08-11T10:36:16.278Z,1.00
2022-08-11T10:37:22.604Z,1.00
2022-08-11T10:38:25.649Z,1.00
2022-08-11T10:39:27.347Z,1.00
2022-08-11T10:40:29.519Z,1.00
2022-08-11T10:42:03.345Z,1.00
2022-08-11T10:43:53.333Z,1.00
2022-08-11T10:44:43.508Z,1.00
2022-08-11T10:46:05.349Z,1.00
2022-08-11T10:47:27.241Z,1.00
2022-08-11T10:48:39.820Z,1.00
2022-08-11T10:49:42.659Z,1.00
2022-08-11T10:51:07.232Z,1.00
2022-08-11T10:52:27.588Z,1.00
2022-08-11T10:53:48.011Z,1.00
2022-08-11T10:55:08.813Z,1.00
2022-08-11T10:56:29.795Z,1.00
2022-08-11T10:58:04.678Z,1.00
2022-08-11T10:59:09.279Z,1.00
2022-08-11T11:00:15.165Z,1.00
2022-08-11T11:01:38.107Z,1.00
2022-08-11T11:02:40.255Z,1.00
2022-08-11T11:03:42.555Z,1.00
2022-08-11T11:04:52.472Z,1.00
2022-08-11T11:06:27.722Z,1.00
2022-08-11T11:07:29.792Z,1.00
2022-08-11T11:08:51.024Z,1.00
2022-08-11T11:10:01.505Z,1.00
2022-08-11T11:11:06.808Z,1.00
2022-08-11T11:12:34.685Z,1.00
2022-08-11T11:13:57.267Z,1.00
2022-08-11T11:15:21.141Z,1.00
2022-08-11T11:16:43.172Z,1.00
2022-08-11T11:18:05.002Z,1.00
2022-08-11T11:19:10.048Z,1.00
2022-08-11T11:20:36.129Z,1.00
2022-08-11T11:21:39.412Z,1.00
2022-08-11T11:22:52.278Z,1.00
2022-08-11T11:24:37.416Z,1.00
2022-08-11T11:26:07.485Z,1.00
2022-08-11T11:27:46.600Z,1.00
2022-08-11T11:29:26.744Z,1.00
2022-08-11T11:30:38.302Z,1.00
2022-08-11T11:32:13.161Z,1.00
2022-08-11T11:33:27.823Z,1.00
2022-08-11T11:35:00.066Z,1.00
2022-08-11T11:36:35.412Z,1.00
2022-08-11T11:37:38.183Z,1.00
2022-08-11T11:38:42.230Z,1.00
2022-08-11T11:39:48.164Z,1.00
2022-08-11T11:41:11.631Z,1.00
2022-08-11T11:42:14.429Z,1.00
2022-08-11T11:43:16.284Z,1.00
2022-08-11T11:44:19.619Z,1.00
2022-08-11T11:45:24.163Z,1.00
2022-08-11T11:46:30.185Z,1.00
2022-08-11T11:47:33.179Z,1.00
2022-08-11T11:48:36.645Z,1.00
2022-08-11T11:49:43.157Z,1.00
2022-08-11T11:50:45.067Z,1.00
2022-08-11T11:51:49.907Z,1.00
2022-08-11T11:52:53.813Z,1.00
2022-08-11T11:53:55.969Z,1.00
2022-08-11T11:54:58.550Z,1.00
2022-08-11T11:56:01.205Z,1.00
2022-08-11T11:57:22.665Z,1.00
2022-08-11T11:58:43.355Z,1.00
2022-08-11T12:00:03.746Z,1.00
2022-08-11T12:01:19.922Z,1.00
2022-08-11T12:02:21.939Z,1.00
2022-08-11T12:03:24.612Z,1.00
2022-08-11T12:04:27.483Z,1.00
2022-08-11T12:05:33.370Z,1.00
2022-08-11T12:06:35.354Z,1.00
2022-08-11T12:08:05.066Z,1.00
2022-08-11T12:09:18.349Z,1.00
2022-08-11T12:10:20.321Z,1.00
2022-08-11T12:11:43.541Z,1.00
2022-08-11T12:13:05.111Z,1.00
2022-08-11T12:14:10.732Z,1.00
2022-08-11T12:15:13.296Z,1.00
2022-08-11T12:16:33.268Z,1.00
2022-08-11T12:17:38.570Z,1.00
2022-08-11T12:18:42.643Z,1.00
2022-08-11T12:19:48.599Z,1.00
2022-08-11T12:20:50.772Z,1.00
2022-08-11T12:22:15.061Z,1.00
2022-08-11T12:23:35.460Z,1.00
2022-08-11T12:24:56.268Z,1.00
2022-08-11T12:26:26.937Z,1.00
2022-08-11T12:27:30.861Z,1.00
2022-08-11T12:28:34.124Z,1.00
2022-08-11T12:29:36.149Z,1.00
2022-08-11T12:31:49.858Z,1.00
2022-08-11T12:32:52.416Z,1.00
2022-08-11T12:33:59.686Z,1.00
2022-08-11T12:35:01.569Z,1.00
2022-08-11T12:36:04.351Z,1.00
2022-08-11T12:37:12.938Z,1.00
2022-08-11T12:38:17.928Z,1.00
2022-08-11T12:40:15.645Z,1.00
2022-08-11T12:41:45.210Z,1.00
2022-08-11T12:43:08.212Z,1.00
2022-08-11T12:44:45.789Z,1.00
2022-08-11T12:45:48.636Z,1.00
2022-08-11T12:46:50.518Z,1.00
2022-08-11T12:48:57.411Z,1.00
2022-08-11T12:49:55.190Z,1.00
2022-08-11T12:51:22.270Z,1.00
2022-08-11T12:52:29.774Z,1.00
2022-08-11T12:53:33.290Z,1.00
2022-08-11T12:55:02.322Z,1.00
2022-08-11T12:56:24.910Z,1.00
2022-08-11T12:58:06.260Z,1.00
2022-08-11T12:59:28.218Z,1.00
2022-08-11T13:00:50.192Z,1.00
2022-08-11T13:02:11.193Z,1.00
2022-08-11T13:03:33.391Z,1.00
2022-08-11T13:04:55.926Z,1.00
2022-08-11T13:06:05.457Z,1.00
2022-08-11T13:07:08.329Z,1.00
2022-08-11T13:08:10.892Z,1.00
2022-08-11T13:09:14.075Z,1.00
2022-08-11T13:10:41.732Z,1.00
2022-08-11T13:12:18.705Z,1.00
2022-08-11T13:13:54.168Z,1.00
2022-08-11T13:14:49.540Z,1.00
2022-08-11T13:15:52.366Z,1.00
2022-08-11T13:17:13.926Z,1.00
2022-08-11T13:18:26.360Z,1.00
2022-08-11T13:19:30.737Z,1.00
2022-08-11T13:20:33.202Z,1.00
2022-08-11T13:21:35.279Z,1.00
2022-08-11T13:22:38.278Z,1.00
2022-08-11T13:23:42.436Z,1.00
2022-08-11T13:25:06.098Z,1.00
2022-08-11T13:26:09.288Z,1.00
2022-08-11T13:27:12.778Z,1.00
2022-08-11T13:28:18.816Z,1.00
2022-08-11T13:29:27.426Z,1.00
2022-08-11T13:30:50.271Z,1.00
2022-08-11T13:31:54.890Z,1.00
2022-08-11T13:32:57.550Z,1.00
2022-08-11T13:35:08.317Z,1.00
2022-08-11T13:36:14.367Z,1.00
2022-08-11T13:37:19.699Z,1.00
2022-08-11T13:38:46.648Z,1.00
2022-08-11T13:39:52.055Z,1.00
2022-08-11T13:40:56.583Z,1.00
2022-08-11T13:42:01.094Z,1.00
2022-08-11T13:43:03.878Z,1.00
2022-08-11T13:44:08.684Z,1.00
2022-08-11T13:45:27.022Z,1.00
2022-08-11T13:46:29.503Z,1.00
2022-08-11T13:47:32.669Z,1.00
2022-08-11T13:48:42.813Z,1.00
2022-08-11T13:49:45.910Z,1.00
2022-08-11T13:51:06.680Z,1.00
2022-08-11T13:52:16.111Z,1.00
2022-08-11T13:53:23.697Z,1.00
2022-08-11T13:54:32.318Z,1.00
2022-08-11T13:55:52.278Z,1.00
2022-08-11T13:58:06.790Z,1.00
2022-08-11T13:58:59.066Z,1.00
2022-08-11T14:00:30.969Z,1.00
2022-08-11T14:02:20.156Z,1.00
2022-08-11T14:03:12.023Z,1.00
2022-08-11T14:04:30.269Z,1.00
2022-08-11T14:05:46.848Z,1.00
2022-08-11T14:06:54.201Z,1.00
2022-08-11T14:08:06.311Z,1.00
2022-08-11T14:09:10.084Z,1.00
2022-08-11T14:10:21.932Z,1.00
2022-08-11T14:12:22.518Z,1.00
2022-08-11T14:13:48.161Z,1.00
2022-08-11T14:15:01.288Z,1.00
2022-08-11T14:16:19.577Z,1.00
2022-08-11T14:17:47.308Z,1.00
2022-08-11T14:18:47.733Z,1.00
2022-08-11T14:19:53.696Z,1.00
2022-08-11T14:21:17.553Z,1.00
2022-08-11T14:22:22.365Z,1.00
2022-08-11T14:23:40.801Z,1.00
2022-08-11T14:24:49.947Z,1.00
2022-08-11T14:26:12.671Z,1.00
2022-08-11T14:28:15.468Z,1.00
2022-08-11T14:28:44.003Z,1.00
2022-08-11T14:29:49.029Z,1.00
2022-08-11T14:31:01.150Z,1.00
2022-08-11T14:32:16.807Z,1.00
2022-08-11T14:33:20.415Z,1.00
2022-08-11T14:34:25.324Z,1.00
2022-08-11T14:35:28.184Z,1.00
2022-08-11T14:36:33.986Z,1.00
2022-08-11T14:37:38.031Z,1.00
2022-08-11T14:38:42.231Z,1.00
2022-08-11T14:42:12.550Z,1.00
2022-08-11T14:44:13.147Z,1.00
2022-08-11T14:45:19.446Z,1.00
2022-08-11T14:47:00.160Z,1.00
2022-08-11T14:48:05.555Z,1.00
2022-08-11T14:49:16.113Z,1.00
2022-08-11T14:50:23.171Z,1.00
2022-08-11T14:51:26.960Z,1.00
2022-08-11T14:52:37.446Z,1.00
2022-08-11T14:53:40.491Z,1.00
2022-08-11T14:55:19.212Z,1.00
2022-08-11T14:56:49.861Z,1.00
2022-08-11T14:58:18.203Z,1.00
2022-08-11T14:59:21.386Z,1.00
2022-08-11T15:00:24.174Z,1.00
2022-08-11T15:01:51.195Z,1.00
2022-08-11T15:03:13.137Z,1.00
2022-08-11T15:04:36.014Z,1.00
2022-08-11T15:05:58.535Z,1.00
2022-08-11T15:07:01.065Z,1.00
2022-08-11T15:08:03.325Z,1.00
2022-08-11T15:09:09.022Z,1.00
2022-08-11T15:10:13.725Z,1.00
2022-08-11T15:11:37.759Z,1.00
2022-08-11T15:12:42.572Z,1.00
2022-08-11T15:14:07.492Z,1.00
2022-08-11T15:15:29.595Z,1.00
2022-08-11T15:18:18.963Z,1.00
2022-08-11T15:19:21.436Z,1.00
2022-08-11T15:20:44.162Z,1.00
2022-08-11T15:22:05.080Z,1.00
2022-08-11T15:23:25.957Z,1.00
2022-08-11T15:24:31.045Z,1.00
2022-08-11T15:25:44.859Z,1.00
2022-08-11T15:27:11.679Z,1.00
2022-08-11T15:28:37.170Z,1.00
2022-08-11T15:30:11.163Z,1.00
2022-08-11T15:31:53.254Z,1.00
2022-08-11T15:33:17.032Z,1.00
2022-08-11T15:34:44.369Z,1.00
2022-08-11T15:36:04.865Z,1.00
2022-08-11T15:37:29.918Z,1.00
2022-08-11T15:38:38.972Z,1.00
2022-08-11T15:40:08.361Z,1.00
2022-08-11T15:42:06.520Z,1.00
2022-08-11T15:43:34.792Z,1.00
2022-08-11T15:45:04.079Z,1.00
2022-08-11T15:46:17.817Z,1.00
2022-08-11T15:47:34.500Z,1.00
2022-08-11T15:48:48.499Z,1.00
2022-08-11T15:50:11.002Z,1.00
2022-08-11T15:52:46.546Z,1.00
2022-08-11T15:53:56.767Z,1.00
2022-08-11T15:55:02.244Z,1.00
2022-08-11T15:56:05.631Z,1.00
2022-08-11T15:57:16.165Z,1.00
2022-08-11T15:59:10.740Z,1.00
2022-08-11T16:01:01.271Z,1.00
2022-08-11T16:03:01.150Z,1.00
2022-08-11T16:04:55.706Z,1.00
2022-08-11T16:06:03.626Z,1.00
2022-08-11T16:07:28.440Z,1.00
2022-08-11T16:08:34.115Z,1.00
2022-08-11T16:10:00.541Z,1.00
2022-08-11T16:11:04.098Z,1.00
2022-08-11T16:12:24.717Z,1.00
2022-08-11T16:13:27.609Z,1.00
2022-08-11T16:14:53.364Z,1.00
2022-08-11T16:16:15.609Z,1.00
2022-08-11T16:17:20.060Z,1.00
2022-08-11T16:18:40.695Z,1.00
2022-08-11T16:19:43.978Z,1.00
2022-08-11T16:20:47.076Z,1.00
2022-08-11T16:21:52.667Z,1.00
2022-08-11T16:23:02.376Z,1.00
2022-08-11T16:24:08.126Z,1.00
2022-08-11T16:27:04.893Z,1.00
2022-08-11T16:27:11.670Z,1.00
2022-08-11T16:28:13.144Z,1.00
2022-08-11T16:29:17.049Z,1.00
2022-08-11T16:30:18.985Z,1.00
2022-08-11T16:31:22.751Z,1.00
2022-08-11T16:32:28.093Z,1.00
2022-08-11T16:33:49.551Z,1.00
2022-08-11T16:35:20.644Z,1.00
2022-08-11T16:36:43.755Z,1.00
2022-08-11T16:38:06.828Z,1.00
2022-08-11T16:39:10.052Z,1.00
2022-08-11T16:40:12.803Z,1.00
2022-08-11T16:41:38.166Z,1.00
2022-08-11T16:43:11.042Z,1.00
2022-08-11T16:44:45.405Z,1.00
2022-08-11T16:48:03.216Z,1.00
2022-08-11T16:49:11.506Z,1.00
2022-08-11T16:50:18.167Z,1.00
2022-08-11T16:51:25.667Z,1.00
2022-08-11T16:52:30.703Z,1.00
2022-08-11T16:53:46.101Z,1.00
2022-08-11T16:54:59.700Z,1.00
2022-08-11T16:56:04.941Z,1.00
2022-08-11T16:57:28.896Z,1.00
2022-08-11T16:58:52.330Z,1.00
2022-08-11T16:59:58.335Z,1.00
2022-08-11T17:01:02.152Z,1.00
2022-08-11T17:02:35.551Z,1.00
2022-08-11T17:04:04.738Z,1.00
2022-08-11T17:05:54.436Z,1.00
2022-08-11T17:07:41.889Z,1.00
2022-08-11T17:09:10.642Z,1.00
2022-08-11T17:10:52.324Z,1.00
2022-08-11T17:12:18.503Z,1.00
2022-08-11T17:13:41.953Z,1.00
2022-08-11T17:14:50.217Z,1.00
2022-08-11T17:16:08.553Z,1.00
2022-08-11T17:17:36.885Z,1.00
2022-08-11T17:18:59.868Z,1.00
2022-08-11T17:20:39.650Z,1.00
2022-08-11T17:21:36.113Z,1.00
2022-08-11T17:22:57.932Z,1.00
2022-08-11T17:24:09.685Z,1.00
2022-08-11T17:25:12.837Z,1.00
2022-08-11T17:26:20.892Z,1.00
2022-08-11T17:27:24.294Z,1.00
2022-08-11T17:28:26.359Z,1.00
2022-08-11T17:29:54.955Z,1.00